SAA190 FAOR-FIMP
Flight info
| Callsign | SAA190 |
|---|---|
| Flight time | 3h 38m |
| Altitude | 35000 |
| Route | EXOBI1A EXOBI UT122 ORNAD/N0408F270 UG653 SUNIR/N0448F350 UG653 SDG UA401 SOBAT |
| Aircraft | A320/M-SDE3FGHIRWY/LB1 |
Departure
| Time | 2026-04-30 11:18 |
|---|---|
| Airport | O.R. Tambo International Airport (FAOR) |
Arrival
| Time | 2026-04-30 14:57 |
|---|---|
| Airport | Sir Seewoosagur Ramgoolam International Airport (FIMP) |
| Time | Latitude | Longitude | Altitude | Speed | Heading |
|---|---|---|---|---|---|
| 2026-04-30 10:48 | -26.13348 | 28.23292 | 5547 ft | 0 kts | 276° |
| 2026-04-30 11:04 | -26.13351 | 28.23322 | 5548 ft | 4 kts | 276° |
| 2026-04-30 11:04 | -26.13354 | 28.23350 | 5548 ft | 2 kts | 276° |
| 2026-04-30 11:04 | -26.13354 | 28.23374 | 5546 ft | 4 kts | 241° |
| 2026-04-30 11:04 | -26.13336 | 28.23390 | 5548 ft | 4 kts | 187° |
| 2026-04-30 11:05 | -26.13315 | 28.23393 | 5546 ft | 1 kts | 186° |
| 2026-04-30 11:09 | -26.13316 | 28.23392 | 5546 ft | 1 kts | 186° |
| 2026-04-30 11:10 | -26.13320 | 28.23392 | 5546 ft | 1 kts | 186° |
| 2026-04-30 11:10 | -26.13330 | 28.23391 | 5548 ft | 2 kts | 186° |
| 2026-04-30 11:10 | -26.13348 | 28.23389 | 5546 ft | 3 kts | 186° |
| 2026-04-30 11:10 | -26.13372 | 28.23386 | 5549 ft | 4 kts | 186° |
| 2026-04-30 11:11 | -26.13402 | 28.23380 | 5550 ft | 5 kts | 193° |
| 2026-04-30 11:11 | -26.13444 | 28.23371 | 5549 ft | 7 kts | 187° |
| 2026-04-30 11:11 | -26.13493 | 28.23365 | 5548 ft | 7 kts | 186° |
| 2026-04-30 11:11 | -26.13544 | 28.23360 | 5548 ft | 7 kts | 185° |
| 2026-04-30 11:12 | -26.13597 | 28.23354 | 5547 ft | 8 kts | 186° |
| 2026-04-30 11:12 | -26.13652 | 28.23348 | 5547 ft | 8 kts | 186° |
| 2026-04-30 11:12 | -26.13711 | 28.23340 | 5550 ft | 9 kts | 186° |
| 2026-04-30 11:12 | -26.13773 | 28.23333 | 5547 ft | 9 kts | 186° |
| 2026-04-30 11:13 | -26.13836 | 28.23320 | 5548 ft | 10 kts | 195° |
| 2026-04-30 11:13 | -26.13909 | 28.23298 | 5548 ft | 11 kts | 195° |
| 2026-04-30 11:13 | -26.13989 | 28.23274 | 5548 ft | 13 kts | 195° |
| 2026-04-30 11:13 | -26.14076 | 28.23247 | 5548 ft | 13 kts | 195° |
| 2026-04-30 11:14 | -26.14170 | 28.23217 | 5552 ft | 15 kts | 196° |
| 2026-04-30 11:14 | -26.14268 | 28.23203 | 5558 ft | 13 kts | 167° |
| 2026-04-30 11:14 | -26.14347 | 28.23226 | 5564 ft | 11 kts | 166° |
| 2026-04-30 11:14 | -26.14438 | 28.23252 | 5564 ft | 16 kts | 166° |
| 2026-04-30 11:15 | -26.14557 | 28.23285 | 5564 ft | 18 kts | 165° |
| 2026-04-30 11:15 | -26.14587 | 28.23303 | 5563 ft | 0 kts | 140° |
| 2026-04-30 11:15 | -26.14593 | 28.23311 | 5563 ft | 2 kts | 125° |
| 2026-04-30 11:16 | -26.14601 | 28.23332 | 5564 ft | 4 kts | 111° |
| 2026-04-30 11:16 | -26.14610 | 28.23364 | 5563 ft | 5 kts | 104° |
| 2026-04-30 11:16 | -26.14617 | 28.23410 | 5561 ft | 8 kts | 87° |
| 2026-04-30 11:16 | -26.14580 | 28.23454 | 5561 ft | 8 kts | 21° |
| 2026-04-30 11:17 | -26.14557 | 28.23462 | 5561 ft | 0 kts | 15° |
| 2026-04-30 11:17 | -26.14494 | 28.23481 | 5559 ft | 35 kts | 15° |
| 2026-04-30 11:17 | -26.14028 | 28.23623 | 5562 ft | 101 kts | 15° |
| 2026-04-30 11:18 | -26.13169 | 28.23884 | 5548 ft | 153 kts | 15° |
| 2026-04-30 11:18 | -26.10889 | 28.24636 | 6710 ft | 172 kts | 14° |
| 2026-04-30 11:18 | -26.09709 | 28.25008 | 7056 ft | 184 kts | 14° |
| 2026-04-30 11:19 | -26.08408 | 28.25407 | 7196 ft | 207 kts | 14° |
| 2026-04-30 11:19 | -26.06962 | 28.25887 | 7385 ft | 229 kts | 15° |
| 2026-04-30 11:19 | -26.05408 | 28.26615 | 7604 ft | 257 kts | 28° |
| 2026-04-30 11:19 | -26.03985 | 28.27952 | 8033 ft | 277 kts | 47° |
| 2026-04-30 11:20 | -26.02972 | 28.29826 | 8693 ft | 289 kts | 65° |
| 2026-04-30 11:20 | -26.02543 | 28.32056 | 9349 ft | 302 kts | 85° |
| 2026-04-30 11:20 | -26.02709 | 28.34418 | 10005 ft | 310 kts | 92° |
| 2026-04-30 11:20 | -26.02939 | 28.36833 | 10455 ft | 321 kts | 91° |
| 2026-04-30 11:21 | -26.03144 | 28.39358 | 10575 ft | 343 kts | 91° |
| 2026-04-30 11:21 | -26.03384 | 28.42068 | 10795 ft | 359 kts | 92° |
| 2026-04-30 11:21 | -26.03642 | 28.44863 | 11247 ft | 365 kts | 92° |
| 2026-04-30 11:21 | -26.03867 | 28.47690 | 11793 ft | 368 kts | 90° |
| 2026-04-30 11:22 | -26.04216 | 28.50522 | 12362 ft | 373 kts | 99° |
| 2026-04-30 11:22 | -26.04855 | 28.53335 | 12930 ft | 377 kts | 102° |
| 2026-04-30 11:22 | -26.05559 | 28.56160 | 13494 ft | 381 kts | 103° |
| 2026-04-30 11:22 | -26.06297 | 28.59001 | 14070 ft | 383 kts | 103° |
| 2026-04-30 11:23 | -26.07049 | 28.61858 | 14564 ft | 387 kts | 104° |
| 2026-04-30 11:23 | -26.07805 | 28.64742 | 15014 ft | 390 kts | 103° |
| 2026-04-30 11:23 | -26.09317 | 28.70608 | 15907 ft | 398 kts | 103° |
| 2026-04-30 11:24 | -26.09944 | 28.73605 | 16331 ft | 399 kts | 95° |
| 2026-04-30 11:24 | -26.10088 | 28.76691 | 16739 ft | 399 kts | 84° |
| 2026-04-30 11:24 | -26.09754 | 28.79756 | 17144 ft | 400 kts | 77° |
| 2026-04-30 11:25 | -26.08876 | 28.85896 | 17941 ft | 408 kts | 78° |
| 2026-04-30 11:25 | -26.08434 | 28.89034 | 18340 ft | 412 kts | 78° |
| 2026-04-30 11:25 | -26.07544 | 28.95393 | 19060 ft | 419 kts | 78° |
| 2026-04-30 11:26 | -26.06628 | 29.01853 | 19774 ft | 425 kts | 77° |
| 2026-04-30 11:26 | -26.06162 | 29.05109 | 20136 ft | 428 kts | 77° |
| 2026-04-30 11:26 | -26.05695 | 29.08381 | 20493 ft | 430 kts | 77° |
| 2026-04-30 11:27 | -26.05227 | 29.11674 | 20853 ft | 432 kts | 77° |
| 2026-04-30 11:27 | -26.04795 | 29.14996 | 21202 ft | 437 kts | 82° |
| 2026-04-30 11:27 | -26.04641 | 29.18382 | 21547 ft | 440 kts | 84° |
| 2026-04-30 11:27 | -26.04512 | 29.21788 | 21895 ft | 443 kts | 84° |
| 2026-04-30 11:28 | -26.04307 | 29.27498 | 22469 ft | 447 kts | 84° |
| 2026-04-30 11:28 | -26.04184 | 29.30957 | 22788 ft | 449 kts | 84° |
| 2026-04-30 11:28 | -26.04057 | 29.34445 | 23117 ft | 452 kts | 84° |
| 2026-04-30 11:29 | -26.03925 | 29.37945 | 23436 ft | 454 kts | 84° |
| 2026-04-30 11:29 | -26.03744 | 29.42611 | 23852 ft | 458 kts | 84° |
| 2026-04-30 11:29 | -26.03509 | 29.48564 | 24294 ft | 462 kts | 84° |
| 2026-04-30 11:30 | -26.03223 | 29.55729 | 24800 ft | 466 kts | 84° |
| 2026-04-30 11:30 | -26.03081 | 29.59340 | 25059 ft | 469 kts | 84° |
| 2026-04-30 11:30 | -26.02938 | 29.62969 | 25322 ft | 471 kts | 84° |
| 2026-04-30 11:31 | -26.02792 | 29.66608 | 25585 ft | 473 kts | 84° |
| 2026-04-30 11:31 | -26.02643 | 29.70276 | 25843 ft | 475 kts | 84° |
| 2026-04-30 11:31 | -26.02492 | 29.73899 | 26098 ft | 477 kts | 84° |
| 2026-04-30 11:31 | -26.02337 | 29.77588 | 26360 ft | 479 kts | 84° |
| 2026-04-30 11:32 | -26.02184 | 29.81293 | 26601 ft | 481 kts | 84° |
| 2026-04-30 11:32 | -26.01982 | 29.86272 | 26922 ft | 483 kts | 84° |
| 2026-04-30 11:32 | -26.01881 | 29.88744 | 27084 ft | 484 kts | 84° |
| 2026-04-30 11:33 | -26.01566 | 29.96256 | 27564 ft | 488 kts | 84° |
| 2026-04-30 11:33 | -26.01403 | 30.00022 | 27808 ft | 489 kts | 84° |
| 2026-04-30 11:33 | -26.01240 | 30.03811 | 28058 ft | 491 kts | 84° |
| 2026-04-30 11:33 | -26.01078 | 30.07609 | 28305 ft | 493 kts | 84° |
| 2026-04-30 11:34 | -26.00916 | 30.11428 | 28551 ft | 495 kts | 84° |
| 2026-04-30 11:34 | -26.00752 | 30.15253 | 28931 ft | 494 kts | 84° |
| 2026-04-30 11:34 | -26.00586 | 30.19056 | 29317 ft | 493 kts | 84° |
| 2026-04-30 11:34 | -26.00414 | 30.22857 | 29697 ft | 492 kts | 84° |
| 2026-04-30 11:35 | -26.00241 | 30.26660 | 30069 ft | 492 kts | 84° |
| 2026-04-30 11:35 | -26.00070 | 30.30453 | 30398 ft | 491 kts | 84° |
| 2026-04-30 11:35 | -25.99901 | 30.34243 | 30695 ft | 491 kts | 84° |
| 2026-04-30 11:35 | -25.99732 | 30.38039 | 30990 ft | 492 kts | 84° |
| 2026-04-30 11:36 | -25.99562 | 30.41841 | 31259 ft | 491 kts | 84° |
| 2026-04-30 11:36 | -25.99391 | 30.45578 | 31547 ft | 491 kts | 84° |
| 2026-04-30 11:36 | -25.99216 | 30.49361 | 31838 ft | 491 kts | 84° |
| 2026-04-30 11:36 | -25.99040 | 30.53153 | 32143 ft | 491 kts | 84° |
| 2026-04-30 11:37 | -25.98864 | 30.56941 | 32438 ft | 491 kts | 84° |
| 2026-04-30 11:37 | -25.98688 | 30.60727 | 32739 ft | 491 kts | 84° |
| 2026-04-30 11:37 | -25.98511 | 30.64518 | 33046 ft | 491 kts | 84° |
| 2026-04-30 11:37 | -25.98333 | 30.68310 | 33356 ft | 491 kts | 84° |
| 2026-04-30 11:38 | -25.98152 | 30.72103 | 33605 ft | 493 kts | 84° |
| 2026-04-30 11:38 | -25.97969 | 30.75910 | 33879 ft | 493 kts | 84° |
| 2026-04-30 11:38 | -25.97784 | 30.79719 | 34161 ft | 493 kts | 84° |
| 2026-04-30 11:38 | -25.97600 | 30.83522 | 34408 ft | 493 kts | 84° |
| 2026-04-30 11:39 | -25.97415 | 30.87336 | 34628 ft | 494 kts | 84° |
| 2026-04-30 11:39 | -25.97233 | 30.91146 | 34858 ft | 494 kts | 84° |
| 2026-04-30 11:39 | -25.97049 | 30.94971 | 35072 ft | 494 kts | 84° |
| 2026-04-30 11:39 | -25.96861 | 30.98772 | 35182 ft | 494 kts | 84° |
| 2026-04-30 11:40 | -25.96477 | 31.06416 | 35216 ft | 504 kts | 84° |
| 2026-04-30 11:40 | -25.96079 | 31.14236 | 35208 ft | 508 kts | 84° |
| 2026-04-30 11:41 | -25.95681 | 31.22065 | 35206 ft | 508 kts | 84° |
| 2026-04-30 11:41 | -25.95280 | 31.29897 | 35206 ft | 507 kts | 84° |
| 2026-04-30 11:42 | -25.94872 | 31.37726 | 35197 ft | 507 kts | 84° |
| 2026-04-30 11:42 | -25.94462 | 31.45556 | 35183 ft | 507 kts | 84° |
| 2026-04-30 11:43 | -25.94052 | 31.53342 | 35158 ft | 507 kts | 84° |
| 2026-04-30 11:43 | -25.93630 | 31.61170 | 35167 ft | 507 kts | 84° |
| 2026-04-30 11:44 | -25.93201 | 31.68992 | 35164 ft | 507 kts | 84° |
| 2026-04-30 11:44 | -25.92780 | 31.76800 | 35163 ft | 507 kts | 84° |
| 2026-04-30 11:45 | -25.92354 | 31.84613 | 35160 ft | 506 kts | 84° |
| 2026-04-30 11:45 | -25.91915 | 31.92435 | 35156 ft | 506 kts | 84° |
| 2026-04-30 11:46 | -25.91458 | 32.00187 | 35148 ft | 506 kts | 84° |
| 2026-04-30 11:46 | -25.90895 | 32.07974 | 35138 ft | 506 kts | 83° |
| 2026-04-30 11:47 | -25.90272 | 32.15759 | 35141 ft | 506 kts | 83° |
| 2026-04-30 11:47 | -25.89667 | 32.23549 | 35131 ft | 506 kts | 83° |
| 2026-04-30 11:48 | -25.89096 | 32.31353 | 35122 ft | 507 kts | 83° |
| 2026-04-30 11:48 | -25.88518 | 32.39151 | 35117 ft | 506 kts | 83° |
| 2026-04-30 11:49 | -25.87922 | 32.46955 | 35118 ft | 506 kts | 83° |
| 2026-04-30 11:49 | -25.87326 | 32.54748 | 35120 ft | 506 kts | 83° |
| 2026-04-30 11:50 | -25.86523 | 32.62446 | 35121 ft | 504 kts | 76° |
| 2026-04-30 11:50 | -25.85102 | 32.70061 | 35120 ft | 504 kts | 76° |
| 2026-04-30 11:51 | -25.83680 | 32.77690 | 35122 ft | 504 kts | 76° |
| 2026-04-30 11:51 | -25.82260 | 32.85314 | 35129 ft | 505 kts | 76° |
| 2026-04-30 11:52 | -25.80832 | 32.92943 | 35127 ft | 505 kts | 76° |
| 2026-04-30 11:52 | -25.79404 | 33.00561 | 35139 ft | 504 kts | 76° |
| 2026-04-30 11:53 | -25.77969 | 33.08182 | 35141 ft | 504 kts | 76° |
| 2026-04-30 11:53 | -25.76534 | 33.15793 | 35154 ft | 504 kts | 76° |
| 2026-04-30 11:54 | -25.75096 | 33.23401 | 35156 ft | 504 kts | 76° |
| 2026-04-30 11:54 | -25.73652 | 33.31011 | 35147 ft | 504 kts | 76° |
| 2026-04-30 11:55 | -25.72220 | 33.38567 | 35155 ft | 504 kts | 76° |
| 2026-04-30 11:55 | -25.70771 | 33.46165 | 35149 ft | 504 kts | 76° |
| 2026-04-30 11:56 | -25.69306 | 33.53780 | 35165 ft | 504 kts | 76° |
| 2026-04-30 11:56 | -25.67850 | 33.61384 | 35161 ft | 504 kts | 76° |
| 2026-04-30 11:57 | -25.66388 | 33.68980 | 35152 ft | 503 kts | 76° |
| 2026-04-30 11:57 | -25.64918 | 33.76564 | 35155 ft | 503 kts | 76° |
| 2026-04-30 11:58 | -25.63461 | 33.84102 | 35168 ft | 503 kts | 75° |
| 2026-04-30 11:58 | -25.61985 | 33.91685 | 35157 ft | 503 kts | 75° |
| 2026-04-30 11:59 | -25.60508 | 33.99263 | 35153 ft | 502 kts | 76° |
| 2026-04-30 11:59 | -25.59033 | 34.06827 | 35158 ft | 502 kts | 75° |
| 2026-04-30 12:00 | -25.57578 | 34.14390 | 35157 ft | 502 kts | 76° |
| 2026-04-30 12:00 | -25.56189 | 34.21960 | 35154 ft | 502 kts | 77° |
| 2026-04-30 12:01 | -25.54816 | 34.29476 | 35155 ft | 501 kts | 76° |
| 2026-04-30 12:01 | -25.53412 | 34.37041 | 35170 ft | 501 kts | 76° |
| 2026-04-30 12:02 | -25.51995 | 34.44593 | 35162 ft | 501 kts | 76° |
| 2026-04-30 12:02 | -25.50576 | 34.52136 | 35162 ft | 500 kts | 76° |
| 2026-04-30 12:03 | -25.48448 | 34.63446 | 35161 ft | 500 kts | 76° |
| 2026-04-30 12:04 | -25.47024 | 34.70979 | 35160 ft | 500 kts | 76° |
| 2026-04-30 12:04 | -25.45608 | 34.78448 | 35164 ft | 499 kts | 76° |
| 2026-04-30 12:05 | -25.44190 | 34.85970 | 35167 ft | 499 kts | 76° |
| 2026-04-30 12:05 | -25.42758 | 34.93493 | 35170 ft | 499 kts | 76° |
| 2026-04-30 12:06 | -25.41318 | 35.01011 | 35178 ft | 500 kts | 76° |
| 2026-04-30 12:06 | -25.39878 | 35.08541 | 35173 ft | 500 kts | 76° |
| 2026-04-30 12:07 | -25.38437 | 35.16073 | 35175 ft | 501 kts | 76° |
| 2026-04-30 12:07 | -25.36986 | 35.23608 | 35176 ft | 501 kts | 76° |
| 2026-04-30 12:08 | -25.35528 | 35.31144 | 35170 ft | 501 kts | 76° |
| 2026-04-30 12:08 | -25.34073 | 35.38677 | 35177 ft | 501 kts | 76° |
| 2026-04-30 12:09 | -25.32619 | 35.46153 | 35176 ft | 501 kts | 76° |
| 2026-04-30 12:09 | -25.31143 | 35.53677 | 35174 ft | 500 kts | 76° |
| 2026-04-30 12:10 | -25.29671 | 35.61196 | 35181 ft | 500 kts | 76° |
| 2026-04-30 12:10 | -25.28198 | 35.68724 | 35179 ft | 500 kts | 76° |
| 2026-04-30 12:11 | -25.26736 | 35.76196 | 35179 ft | 500 kts | 76° |
| 2026-04-30 12:11 | -25.25256 | 35.83700 | 35181 ft | 500 kts | 76° |
| 2026-04-30 12:12 | -25.23771 | 35.91207 | 35185 ft | 500 kts | 76° |
| 2026-04-30 12:12 | -25.22281 | 35.98709 | 35188 ft | 500 kts | 76° |
| 2026-04-30 12:13 | -25.20791 | 36.06219 | 35190 ft | 500 kts | 76° |
| 2026-04-30 12:13 | -25.19295 | 36.13719 | 35190 ft | 500 kts | 76° |
| 2026-04-30 12:14 | -25.17795 | 36.21226 | 35191 ft | 500 kts | 76° |
| 2026-04-30 12:14 | -25.16299 | 36.28727 | 35179 ft | 499 kts | 76° |
| 2026-04-30 12:15 | -25.14801 | 36.36173 | 35179 ft | 499 kts | 76° |
| 2026-04-30 12:15 | -25.13295 | 36.43648 | 35181 ft | 499 kts | 76° |
| 2026-04-30 12:16 | -25.11781 | 36.51127 | 35180 ft | 499 kts | 76° |
| 2026-04-30 12:16 | -25.10242 | 36.58595 | 35182 ft | 498 kts | 75° |
| 2026-04-30 12:17 | -25.07751 | 36.69678 | 35184 ft | 498 kts | 74° |
| 2026-04-30 12:17 | -25.06076 | 36.77092 | 35179 ft | 498 kts | 75° |
| 2026-04-30 12:18 | -25.04414 | 36.84508 | 35183 ft | 497 kts | 75° |
| 2026-04-30 12:18 | -25.02761 | 36.91913 | 35186 ft | 497 kts | 75° |
| 2026-04-30 12:19 | -25.01097 | 36.99321 | 35181 ft | 497 kts | 75° |
| 2026-04-30 12:19 | -24.99713 | 37.05477 | 35185 ft | 497 kts | 75° |
| 2026-04-30 12:20 | -24.98049 | 37.12863 | 35188 ft | 497 kts | 75° |
| 2026-04-30 12:20 | -24.96381 | 37.20255 | 35188 ft | 496 kts | 75° |
| 2026-04-30 12:21 | -24.94715 | 37.27636 | 35179 ft | 496 kts | 75° |
| 2026-04-30 12:21 | -24.93035 | 37.35020 | 35181 ft | 496 kts | 75° |
| 2026-04-30 12:22 | -24.91351 | 37.42401 | 35184 ft | 496 kts | 75° |
| 2026-04-30 12:22 | -24.89680 | 37.49726 | 35181 ft | 496 kts | 75° |
| 2026-04-30 12:23 | -24.87996 | 37.57093 | 35183 ft | 496 kts | 75° |
| 2026-04-30 12:23 | -24.86315 | 37.64459 | 35185 ft | 496 kts | 75° |
| 2026-04-30 12:24 | -24.84623 | 37.71828 | 35181 ft | 496 kts | 75° |
| 2026-04-30 12:24 | -24.82924 | 37.79197 | 35185 ft | 496 kts | 75° |
| 2026-04-30 12:25 | -24.81231 | 37.86513 | 35182 ft | 496 kts | 74° |
| 2026-04-30 12:25 | -24.79523 | 37.93870 | 35177 ft | 495 kts | 74° |
| 2026-04-30 12:26 | -24.77820 | 38.01222 | 35181 ft | 495 kts | 74° |
| 2026-04-30 12:26 | -24.76116 | 38.08569 | 35179 ft | 495 kts | 74° |
| 2026-04-30 12:27 | -24.74405 | 38.15914 | 35182 ft | 495 kts | 74° |
| 2026-04-30 12:27 | -24.72684 | 38.23258 | 35174 ft | 495 kts | 74° |
| 2026-04-30 12:28 | -24.70972 | 38.30556 | 35177 ft | 495 kts | 74° |
| 2026-04-30 12:28 | -24.69249 | 38.37894 | 35179 ft | 495 kts | 74° |
| 2026-04-30 12:29 | -24.67524 | 38.45226 | 35179 ft | 495 kts | 74° |
| 2026-04-30 12:29 | -24.65802 | 38.52563 | 35181 ft | 496 kts | 74° |
| 2026-04-30 12:30 | -24.64068 | 38.59904 | 35178 ft | 496 kts | 74° |
| 2026-04-30 12:30 | -24.62316 | 38.67258 | 35176 ft | 497 kts | 74° |
| 2026-04-30 12:31 | -24.60567 | 38.74602 | 35178 ft | 497 kts | 74° |
| 2026-04-30 12:31 | -24.58827 | 38.81907 | 35179 ft | 497 kts | 74° |
| 2026-04-30 12:32 | -24.57084 | 38.89253 | 35178 ft | 497 kts | 74° |
| 2026-04-30 12:32 | -24.55331 | 38.96597 | 35179 ft | 497 kts | 74° |
| 2026-04-30 12:33 | -24.53572 | 39.03943 | 35176 ft | 496 kts | 74° |
| 2026-04-30 12:33 | -24.51803 | 39.11278 | 35173 ft | 496 kts | 74° |
| 2026-04-30 12:34 | -24.50043 | 39.18556 | 35173 ft | 496 kts | 74° |
| 2026-04-30 12:34 | -24.48286 | 39.25878 | 35173 ft | 496 kts | 74° |
| 2026-04-30 12:35 | -24.46517 | 39.33202 | 35171 ft | 496 kts | 74° |
| 2026-04-30 12:35 | -24.44741 | 39.40517 | 35162 ft | 495 kts | 74° |
| 2026-04-30 12:36 | -24.42959 | 39.47823 | 35170 ft | 495 kts | 74° |
| 2026-04-30 12:36 | -24.41191 | 39.55077 | 35166 ft | 495 kts | 74° |
| 2026-04-30 12:37 | -24.39408 | 39.62373 | 35163 ft | 494 kts | 74° |
| 2026-04-30 12:37 | -24.37619 | 39.69659 | 35163 ft | 494 kts | 74° |
| 2026-04-30 12:38 | -24.35837 | 39.76942 | 35163 ft | 494 kts | 74° |
| 2026-04-30 12:38 | -24.34069 | 39.84178 | 35165 ft | 494 kts | 74° |
| 2026-04-30 12:39 | -24.32278 | 39.91458 | 35160 ft | 494 kts | 74° |
| 2026-04-30 12:39 | -24.30481 | 39.98737 | 35160 ft | 494 kts | 73° |
| 2026-04-30 12:40 | -24.28714 | 40.06020 | 35160 ft | 494 kts | 75° |
| 2026-04-30 12:40 | -24.27047 | 40.13328 | 35160 ft | 494 kts | 75° |
| 2026-04-30 12:41 | -24.25391 | 40.20631 | 35158 ft | 493 kts | 75° |
| 2026-04-30 12:41 | -24.23712 | 40.27869 | 35152 ft | 493 kts | 75° |
| 2026-04-30 12:42 | -24.22008 | 40.35150 | 35156 ft | 492 kts | 75° |
| 2026-04-30 12:42 | -24.20306 | 40.42401 | 35156 ft | 492 kts | 75° |
| 2026-04-30 12:43 | -24.18601 | 40.49676 | 35143 ft | 492 kts | 75° |
| 2026-04-30 12:43 | -24.16903 | 40.56932 | 35145 ft | 491 kts | 75° |
| 2026-04-30 12:44 | -24.15205 | 40.64188 | 35145 ft | 491 kts | 75° |
| 2026-04-30 12:44 | -24.13502 | 40.71386 | 35144 ft | 491 kts | 74° |
| 2026-04-30 12:45 | -24.11785 | 40.78605 | 35145 ft | 491 kts | 74° |
| 2026-04-30 12:45 | -24.10069 | 40.85837 | 35142 ft | 491 kts | 74° |
| 2026-04-30 12:46 | -24.08355 | 40.93072 | 35137 ft | 491 kts | 74° |
| 2026-04-30 12:46 | -24.06638 | 41.00292 | 35136 ft | 490 kts | 74° |
| 2026-04-30 12:47 | -24.04913 | 41.07520 | 35142 ft | 490 kts | 74° |
| 2026-04-30 12:47 | -24.03186 | 41.14735 | 35146 ft | 490 kts | 74° |
| 2026-04-30 12:48 | -24.01455 | 41.21947 | 35137 ft | 490 kts | 74° |
| 2026-04-30 12:48 | -23.99727 | 41.29164 | 35143 ft | 490 kts | 74° |
| 2026-04-30 12:49 | -23.98003 | 41.36333 | 35136 ft | 490 kts | 74° |
| 2026-04-30 12:49 | -23.96263 | 41.43537 | 35139 ft | 490 kts | 74° |
| 2026-04-30 12:50 | -23.94520 | 41.50747 | 35136 ft | 490 kts | 74° |
| 2026-04-30 12:50 | -23.92772 | 41.57941 | 35133 ft | 490 kts | 74° |
| 2026-04-30 12:51 | -23.91027 | 41.65134 | 35139 ft | 489 kts | 74° |
| 2026-04-30 12:51 | -23.89277 | 41.72326 | 35126 ft | 490 kts | 74° |
| 2026-04-30 12:52 | -23.87520 | 41.79523 | 35121 ft | 490 kts | 74° |
| 2026-04-30 12:52 | -23.85776 | 41.86673 | 35118 ft | 491 kts | 74° |
| 2026-04-30 12:53 | -23.84018 | 41.93876 | 35119 ft | 491 kts | 74° |
| 2026-04-30 12:53 | -23.82252 | 42.01077 | 35117 ft | 491 kts | 73° |
| 2026-04-30 12:54 | -23.80475 | 42.08267 | 35113 ft | 490 kts | 73° |
| 2026-04-30 12:54 | -23.78704 | 42.15463 | 35110 ft | 490 kts | 73° |
| 2026-04-30 12:55 | -23.76927 | 42.22651 | 35120 ft | 490 kts | 73° |
| 2026-04-30 12:55 | -23.75143 | 42.29840 | 35120 ft | 490 kts | 73° |
| 2026-04-30 12:56 | -23.73374 | 42.36979 | 35118 ft | 490 kts | 73° |
| 2026-04-30 12:56 | -23.71597 | 42.44151 | 35116 ft | 489 kts | 73° |
| 2026-04-30 12:57 | -23.69813 | 42.51318 | 35112 ft | 489 kts | 73° |
| 2026-04-30 12:57 | -23.68028 | 42.58463 | 35105 ft | 488 kts | 73° |
| 2026-04-30 12:58 | -23.66236 | 42.65616 | 35101 ft | 489 kts | 73° |
| 2026-04-30 12:58 | -23.64444 | 42.72773 | 35099 ft | 489 kts | 73° |
| 2026-04-30 12:59 | -23.62653 | 42.79929 | 35092 ft | 489 kts | 73° |
| 2026-04-30 12:59 | -23.60865 | 42.87028 | 35087 ft | 489 kts | 73° |
| 2026-04-30 13:00 | -23.59057 | 42.94179 | 35087 ft | 489 kts | 73° |
| 2026-04-30 13:00 | -23.57246 | 43.01339 | 35090 ft | 489 kts | 73° |
| 2026-04-30 13:01 | -23.55431 | 43.08493 | 35087 ft | 489 kts | 73° |
| 2026-04-30 13:01 | -23.53612 | 43.15635 | 35082 ft | 489 kts | 73° |
| 2026-04-30 13:02 | -23.51794 | 43.22782 | 35080 ft | 489 kts | 73° |
| 2026-04-30 13:02 | -23.49989 | 43.29872 | 35080 ft | 489 kts | 73° |
| 2026-04-30 13:03 | -23.48172 | 43.37001 | 35072 ft | 488 kts | 73° |
| 2026-04-30 13:03 | -23.46345 | 43.44131 | 35057 ft | 488 kts | 73° |
| 2026-04-30 13:04 | -23.44517 | 43.51256 | 35051 ft | 488 kts | 73° |
| 2026-04-30 13:04 | -23.42686 | 43.58369 | 35047 ft | 488 kts | 73° |
| 2026-04-30 13:05 | -23.40853 | 43.65488 | 35042 ft | 488 kts | 73° |
| 2026-04-30 13:06 | -23.38416 | 43.76242 | 35047 ft | 487 kts | 79° |
| 2026-04-30 13:06 | -23.37163 | 43.83496 | 35046 ft | 487 kts | 79° |
| 2026-04-30 13:07 | -23.35910 | 43.90697 | 35045 ft | 487 kts | 79° |
| 2026-04-30 13:07 | -23.34641 | 43.97950 | 35046 ft | 488 kts | 79° |
| 2026-04-30 13:08 | -23.33376 | 44.05206 | 35055 ft | 488 kts | 79° |
| 2026-04-30 13:08 | -23.32108 | 44.12446 | 35052 ft | 488 kts | 79° |
| 2026-04-30 13:09 | -23.31050 | 44.18498 | 35054 ft | 488 kts | 79° |
| 2026-04-30 13:09 | -23.29775 | 44.25759 | 35056 ft | 489 kts | 79° |
| 2026-04-30 13:10 | -23.28487 | 44.33024 | 35053 ft | 489 kts | 78° |
| 2026-04-30 13:10 | -23.27195 | 44.40289 | 35054 ft | 489 kts | 78° |
| 2026-04-30 13:11 | -23.25906 | 44.47500 | 35055 ft | 489 kts | 78° |
| 2026-04-30 13:11 | -23.24615 | 44.54772 | 35055 ft | 489 kts | 79° |
| 2026-04-30 13:12 | -23.23325 | 44.62054 | 35049 ft | 489 kts | 79° |
| 2026-04-30 13:12 | -23.22032 | 44.69324 | 35059 ft | 489 kts | 78° |
| 2026-04-30 13:13 | -23.20078 | 44.80164 | 35062 ft | 489 kts | 78° |
| 2026-04-30 13:14 | -23.18113 | 44.91038 | 35061 ft | 489 kts | 78° |
| 2026-04-30 13:14 | -23.16145 | 45.01902 | 35053 ft | 488 kts | 78° |
| 2026-04-30 13:15 | -23.14162 | 45.12749 | 35068 ft | 486 kts | 78° |
| 2026-04-30 13:16 | -23.12842 | 45.19952 | 35068 ft | 486 kts | 78° |
| 2026-04-30 13:16 | -23.11530 | 45.27151 | 35061 ft | 486 kts | 78° |
| 2026-04-30 13:17 | -23.09548 | 45.37897 | 35064 ft | 485 kts | 78° |
| 2026-04-30 13:18 | -23.07553 | 45.48674 | 35068 ft | 485 kts | 78° |
| 2026-04-30 13:18 | -23.05576 | 45.59439 | 35065 ft | 484 kts | 78° |
| 2026-04-30 13:19 | -23.04245 | 45.66611 | 35073 ft | 485 kts | 78° |
| 2026-04-30 13:19 | -23.02905 | 45.73791 | 35079 ft | 485 kts | 78° |
| 2026-04-30 13:20 | -23.01558 | 45.80972 | 35080 ft | 486 kts | 78° |
| 2026-04-30 13:20 | -23.00211 | 45.88168 | 35092 ft | 486 kts | 78° |
| 2026-04-30 13:21 | -22.98868 | 45.95369 | 35104 ft | 487 kts | 78° |
| 2026-04-30 13:22 | -22.96833 | 46.06130 | 35116 ft | 488 kts | 78° |
| 2026-04-30 13:22 | -22.94781 | 46.16961 | 35142 ft | 488 kts | 78° |
| 2026-04-30 13:23 | -22.92719 | 46.27795 | 35152 ft | 488 kts | 78° |
| 2026-04-30 13:24 | -22.89981 | 46.42176 | 35156 ft | 487 kts | 78° |
| 2026-04-30 13:25 | -22.87230 | 46.56584 | 35157 ft | 488 kts | 78° |
| 2026-04-30 13:26 | -22.83757 | 46.74590 | 35164 ft | 487 kts | 78° |
| 2026-04-30 13:28 | -22.80270 | 46.92555 | 35162 ft | 487 kts | 78° |
| 2026-04-30 13:28 | -22.78177 | 47.03285 | 35164 ft | 487 kts | 78° |
| 2026-04-30 13:29 | -22.75361 | 47.17658 | 35176 ft | 486 kts | 78° |
| 2026-04-30 13:31 | -22.71837 | 47.35534 | 35172 ft | 487 kts | 78° |
| 2026-04-30 13:32 | -22.68288 | 47.53489 | 35155 ft | 487 kts | 78° |
| 2026-04-30 13:33 | -22.65437 | 47.67783 | 35154 ft | 487 kts | 78° |
| 2026-04-30 13:34 | -22.63287 | 47.78537 | 35154 ft | 487 kts | 78° |
| 2026-04-30 13:35 | -22.60403 | 47.92882 | 35145 ft | 488 kts | 78° |
| 2026-04-30 13:36 | -22.57505 | 48.07229 | 35147 ft | 488 kts | 78° |
| 2026-04-30 13:36 | -22.55342 | 48.17930 | 35146 ft | 487 kts | 78° |
| 2026-04-30 13:37 | -22.53157 | 48.28674 | 35145 ft | 487 kts | 78° |
| 2026-04-30 13:38 | -22.50964 | 48.39427 | 35142 ft | 488 kts | 78° |
| 2026-04-30 13:39 | -22.48032 | 48.53782 | 35144 ft | 488 kts | 78° |
| 2026-04-30 13:40 | -22.45825 | 48.64528 | 35146 ft | 488 kts | 78° |
| 2026-04-30 13:40 | -22.44362 | 48.71638 | 35143 ft | 488 kts | 78° |
| 2026-04-30 13:41 | -22.42878 | 48.78804 | 35140 ft | 488 kts | 78° |
| 2026-04-30 13:41 | -22.41387 | 48.85960 | 35137 ft | 488 kts | 78° |
| 2026-04-30 13:42 | -22.39896 | 48.93130 | 35138 ft | 489 kts | 78° |
| 2026-04-30 13:42 | -22.37675 | 49.03858 | 35146 ft | 487 kts | 78° |
| 2026-04-30 13:43 | -22.36189 | 49.10990 | 35145 ft | 486 kts | 77° |
| 2026-04-30 13:43 | -22.34688 | 49.18116 | 35143 ft | 486 kts | 77° |
| 2026-04-30 13:44 | -22.33190 | 49.25249 | 35141 ft | 486 kts | 77° |
| 2026-04-30 13:44 | -22.31690 | 49.32361 | 35139 ft | 486 kts | 77° |
| 2026-04-30 13:45 | -22.29451 | 49.42991 | 35127 ft | 486 kts | 77° |
| 2026-04-30 13:46 | -22.27946 | 49.50113 | 35140 ft | 486 kts | 77° |
| 2026-04-30 13:46 | -22.26432 | 49.57225 | 35140 ft | 486 kts | 77° |
| 2026-04-30 13:47 | -22.24925 | 49.64337 | 35129 ft | 486 kts | 78° |
| 2026-04-30 13:47 | -22.23413 | 49.71454 | 35129 ft | 486 kts | 77° |
| 2026-04-30 13:48 | -22.21904 | 49.78515 | 35129 ft | 486 kts | 78° |
| 2026-04-30 13:48 | -22.20383 | 49.85634 | 35127 ft | 487 kts | 77° |
| 2026-04-30 13:49 | -22.18858 | 49.92756 | 35120 ft | 487 kts | 77° |
| 2026-04-30 13:49 | -22.17323 | 49.99874 | 35133 ft | 486 kts | 77° |
| 2026-04-30 13:50 | -22.15788 | 50.06992 | 35132 ft | 486 kts | 77° |
| 2026-04-30 13:50 | -22.13494 | 50.17635 | 35129 ft | 485 kts | 77° |
| 2026-04-30 13:51 | -22.11975 | 50.24683 | 35131 ft | 486 kts | 77° |
| 2026-04-30 13:51 | -22.10430 | 50.31789 | 35124 ft | 486 kts | 77° |
| 2026-04-30 13:52 | -22.08882 | 50.38886 | 35122 ft | 487 kts | 77° |
| 2026-04-30 13:52 | -22.07334 | 50.45991 | 35119 ft | 487 kts | 77° |
| 2026-04-30 13:53 | -22.05777 | 50.53122 | 35120 ft | 488 kts | 77° |
| 2026-04-30 13:53 | -22.04477 | 50.59045 | 35120 ft | 488 kts | 77° |
| 2026-04-30 13:54 | -22.02661 | 50.67331 | 35125 ft | 489 kts | 77° |
| 2026-04-30 13:54 | -22.01093 | 50.74459 | 35119 ft | 489 kts | 77° |
| 2026-04-30 13:55 | -21.99519 | 50.81601 | 35117 ft | 490 kts | 77° |
| 2026-04-30 13:55 | -21.97942 | 50.88754 | 35118 ft | 490 kts | 77° |
| 2026-04-30 13:56 | -21.96363 | 50.95901 | 35118 ft | 490 kts | 77° |
| 2026-04-30 13:56 | -21.94789 | 51.02992 | 35121 ft | 490 kts | 77° |
| 2026-04-30 13:57 | -21.93205 | 51.10123 | 35124 ft | 489 kts | 77° |
| 2026-04-30 13:57 | -21.91615 | 51.17249 | 35122 ft | 489 kts | 77° |
| 2026-04-30 13:58 | -21.89503 | 51.26727 | 35121 ft | 489 kts | 77° |
| 2026-04-30 13:59 | -21.87906 | 51.33835 | 35121 ft | 489 kts | 77° |
| 2026-04-30 13:59 | -21.86300 | 51.40959 | 35112 ft | 489 kts | 77° |
| 2026-04-30 14:00 | -21.84715 | 51.48040 | 35116 ft | 488 kts | 77° |
| 2026-04-30 14:00 | -21.82314 | 51.58685 | 35123 ft | 488 kts | 77° |
| 2026-04-30 14:01 | -21.80710 | 51.65778 | 35114 ft | 488 kts | 77° |
| 2026-04-30 14:01 | -21.79095 | 51.72885 | 35112 ft | 488 kts | 77° |
| 2026-04-30 14:02 | -21.77479 | 51.79981 | 35114 ft | 488 kts | 77° |
| 2026-04-30 14:02 | -21.75886 | 51.86995 | 35057 ft | 480 kts | 77° |
| 2026-04-30 14:03 | -21.74293 | 51.93992 | 35041 ft | 483 kts | 77° |
| 2026-04-30 14:03 | -21.72686 | 52.01019 | 35057 ft | 485 kts | 77° |
| 2026-04-30 14:04 | -21.71074 | 52.08065 | 35075 ft | 486 kts | 77° |
| 2026-04-30 14:04 | -21.69450 | 52.15127 | 35082 ft | 487 kts | 77° |
| 2026-04-30 14:05 | -21.67833 | 52.22150 | 35093 ft | 487 kts | 77° |
| 2026-04-30 14:05 | -21.66205 | 52.29227 | 35101 ft | 488 kts | 77° |
| 2026-04-30 14:06 | -21.63750 | 52.39844 | 35097 ft | 488 kts | 77° |
| 2026-04-30 14:07 | -21.61281 | 52.50476 | 35100 ft | 488 kts | 77° |
| 2026-04-30 14:08 | -21.58815 | 52.61094 | 35105 ft | 488 kts | 77° |
| 2026-04-30 14:08 | -21.56338 | 52.71701 | 35101 ft | 488 kts | 77° |
| 2026-04-30 14:09 | -21.54696 | 52.78728 | 35105 ft | 488 kts | 77° |
| 2026-04-30 14:10 | -21.52203 | 52.89355 | 35097 ft | 489 kts | 77° |
| 2026-04-30 14:10 | -21.50537 | 52.96444 | 35098 ft | 489 kts | 77° |
| 2026-04-30 14:11 | -21.48882 | 53.03481 | 35097 ft | 489 kts | 77° |
| 2026-04-30 14:11 | -21.47215 | 53.10547 | 35099 ft | 488 kts | 77° |
| 2026-04-30 14:12 | -21.45546 | 53.17615 | 35096 ft | 488 kts | 77° |
| 2026-04-30 14:12 | -21.43875 | 53.24669 | 35097 ft | 488 kts | 77° |
| 2026-04-30 14:13 | -21.42196 | 53.31724 | 35096 ft | 488 kts | 77° |
| 2026-04-30 14:13 | -21.40510 | 53.38790 | 35090 ft | 488 kts | 77° |
| 2026-04-30 14:14 | -21.38832 | 53.45855 | 35085 ft | 489 kts | 77° |
| 2026-04-30 14:14 | -21.37142 | 53.52926 | 35078 ft | 489 kts | 76° |
| 2026-04-30 14:15 | -21.35457 | 53.59932 | 35093 ft | 488 kts | 76° |
| 2026-04-30 14:15 | -21.33761 | 53.66973 | 35097 ft | 487 kts | 76° |
| 2026-04-30 14:16 | -21.32078 | 53.73993 | 35099 ft | 486 kts | 76° |
| 2026-04-30 14:16 | -21.30394 | 53.81018 | 35093 ft | 486 kts | 76° |
| 2026-04-30 14:17 | -21.28707 | 53.88042 | 35084 ft | 486 kts | 76° |
| 2026-04-30 14:17 | -21.27014 | 53.95057 | 35086 ft | 486 kts | 76° |
| 2026-04-30 14:18 | -21.25315 | 54.02071 | 35087 ft | 486 kts | 76° |
| 2026-04-30 14:18 | -21.22761 | 54.12608 | 35084 ft | 486 kts | 76° |
| 2026-04-30 14:19 | -21.20202 | 54.23119 | 35090 ft | 485 kts | 76° |
| 2026-04-30 14:20 | -21.18507 | 54.30066 | 35084 ft | 485 kts | 76° |
| 2026-04-30 14:20 | -21.15943 | 54.40557 | 35083 ft | 485 kts | 76° |
| 2026-04-30 14:21 | -21.14231 | 54.47544 | 35081 ft | 485 kts | 76° |
| 2026-04-30 14:22 | -21.11651 | 54.58048 | 35079 ft | 486 kts | 76° |
| 2026-04-30 14:22 | -21.09064 | 54.68545 | 35077 ft | 485 kts | 76° |
| 2026-04-30 14:23 | -21.05617 | 54.82472 | 35077 ft | 485 kts | 76° |
| 2026-04-30 14:24 | -21.03027 | 54.92938 | 35075 ft | 485 kts | 76° |
| 2026-04-30 14:25 | -20.99553 | 55.06888 | 35067 ft | 485 kts | 76° |
| 2026-04-30 14:26 | -20.96934 | 55.17357 | 35065 ft | 486 kts | 76° |
| 2026-04-30 14:27 | -20.94300 | 55.27818 | 35055 ft | 485 kts | 76° |
| 2026-04-30 14:27 | -20.92549 | 55.34787 | 35051 ft | 485 kts | 76° |
| 2026-04-30 14:28 | -20.89929 | 55.45231 | 35046 ft | 483 kts | 76° |
| 2026-04-30 14:28 | -20.89071 | 55.48654 | 34603 ft | 483 kts | 76° |
| 2026-04-30 14:28 | -20.88206 | 55.52128 | 34099 ft | 482 kts | 76° |
| 2026-04-30 14:29 | -20.86635 | 55.59063 | 33076 ft | 477 kts | 78° |
| 2026-04-30 14:29 | -20.85433 | 55.64791 | 32279 ft | 473 kts | 79° |
| 2026-04-30 14:30 | -20.83009 | 55.76124 | 30683 ft | 465 kts | 78° |
| 2026-04-30 14:31 | -20.81525 | 55.82814 | 29717 ft | 460 kts | 78° |
| 2026-04-30 14:31 | -20.80060 | 55.89398 | 28845 ft | 451 kts | 78° |
| 2026-04-30 14:31 | -20.79341 | 55.92642 | 28405 ft | 447 kts | 78° |
| 2026-04-30 14:32 | -20.77929 | 55.99058 | 27559 ft | 439 kts | 78° |
| 2026-04-30 14:32 | -20.77243 | 56.02174 | 27140 ft | 436 kts | 78° |
| 2026-04-30 14:32 | -20.76549 | 56.05314 | 26733 ft | 432 kts | 78° |
| 2026-04-30 14:33 | -20.75858 | 56.08429 | 26315 ft | 430 kts | 78° |
| 2026-04-30 14:33 | -20.74487 | 56.14605 | 25466 ft | 425 kts | 78° |
| 2026-04-30 14:33 | -20.73805 | 56.17675 | 25024 ft | 424 kts | 78° |
| 2026-04-30 14:34 | -20.73127 | 56.20731 | 24586 ft | 422 kts | 78° |
| 2026-04-30 14:34 | -20.72451 | 56.23782 | 24136 ft | 421 kts | 78° |
| 2026-04-30 14:34 | -20.71771 | 56.26811 | 23743 ft | 418 kts | 77° |
| 2026-04-30 14:34 | -20.71005 | 56.29805 | 23264 ft | 417 kts | 75° |
| 2026-04-30 14:35 | -20.69575 | 56.34672 | 22465 ft | 413 kts | 73° |
| 2026-04-30 14:35 | -20.68380 | 56.38537 | 21836 ft | 409 kts | 73° |
| 2026-04-30 14:35 | -20.67500 | 56.41403 | 21492 ft | 403 kts | 74° |
| 2026-04-30 14:36 | -20.66643 | 56.44242 | 20884 ft | 399 kts | 74° |
| 2026-04-30 14:36 | -20.65808 | 56.47054 | 20448 ft | 396 kts | 75° |
| 2026-04-30 14:36 | -20.64989 | 56.49853 | 19994 ft | 394 kts | 75° |
| 2026-04-30 14:36 | -20.64179 | 56.52637 | 19536 ft | 392 kts | 75° |
| 2026-04-30 14:37 | -20.63372 | 56.55414 | 19098 ft | 390 kts | 75° |
| 2026-04-30 14:37 | -20.62566 | 56.58180 | 18647 ft | 389 kts | 75° |
| 2026-04-30 14:37 | -20.61759 | 56.60937 | 18170 ft | 388 kts | 75° |
| 2026-04-30 14:37 | -20.60953 | 56.63682 | 17698 ft | 386 kts | 75° |
| 2026-04-30 14:38 | -20.60151 | 56.66404 | 17251 ft | 383 kts | 75° |
| 2026-04-30 14:38 | -20.59367 | 56.69066 | 16866 ft | 378 kts | 75° |
| 2026-04-30 14:38 | -20.58578 | 56.71735 | 16433 ft | 375 kts | 75° |
| 2026-04-30 14:38 | -20.57794 | 56.74375 | 15980 ft | 373 kts | 74° |
| 2026-04-30 14:39 | -20.57016 | 56.76996 | 15574 ft | 369 kts | 75° |
| 2026-04-30 14:39 | -20.56247 | 56.79600 | 15213 ft | 365 kts | 74° |
| 2026-04-30 14:39 | -20.55492 | 56.82166 | 14825 ft | 362 kts | 74° |
| 2026-04-30 14:40 | -20.53994 | 56.87250 | 14030 ft | 356 kts | 74° |
| 2026-04-30 14:40 | -20.53251 | 56.89757 | 13605 ft | 354 kts | 74° |
| 2026-04-30 14:40 | -20.52513 | 56.92249 | 13205 ft | 350 kts | 73° |
| 2026-04-30 14:40 | -20.51783 | 56.94713 | 12790 ft | 345 kts | 74° |
| 2026-04-30 14:41 | -20.51065 | 56.97129 | 12140 ft | 338 kts | 73° |
| 2026-04-30 14:41 | -20.50366 | 56.99480 | 11723 ft | 326 kts | 73° |
| 2026-04-30 14:41 | -20.49681 | 57.01788 | 11322 ft | 325 kts | 74° |
| 2026-04-30 14:41 | -20.49000 | 57.04083 | 10930 ft | 325 kts | 73° |
| 2026-04-30 14:42 | -20.48322 | 57.06370 | 10661 ft | 320 kts | 73° |
| 2026-04-30 14:42 | -20.47661 | 57.08591 | 10453 ft | 308 kts | 73° |
| 2026-04-30 14:42 | -20.47016 | 57.10756 | 9938 ft | 304 kts | 73° |
| 2026-04-30 14:42 | -20.46387 | 57.12864 | 9417 ft | 300 kts | 73° |
| 2026-04-30 14:43 | -20.45766 | 57.14949 | 9033 ft | 290 kts | 73° |
| 2026-04-30 14:43 | -20.45162 | 57.16973 | 8682 ft | 281 kts | 73° |
| 2026-04-30 14:43 | -20.44581 | 57.18926 | 8344 ft | 272 kts | 74° |
| 2026-04-30 14:43 | -20.44015 | 57.20828 | 8015 ft | 268 kts | 74° |
| 2026-04-30 14:44 | -20.43468 | 57.22660 | 7706 ft | 270 kts | 74° |
| 2026-04-30 14:44 | -20.42905 | 57.24547 | 7366 ft | 271 kts | 73° |
| 2026-04-30 14:44 | -20.42331 | 57.26476 | 7025 ft | 272 kts | 73° |
| 2026-04-30 14:44 | -20.41757 | 57.28405 | 6690 ft | 273 kts | 74° |
| 2026-04-30 14:45 | -20.41181 | 57.30343 | 6345 ft | 275 kts | 75° |
| 2026-04-30 14:45 | -20.40602 | 57.32287 | 5992 ft | 275 kts | 73° |
| 2026-04-30 14:45 | -20.40020 | 57.34235 | 5650 ft | 276 kts | 75° |
| 2026-04-30 14:45 | -20.39433 | 57.36191 | 5299 ft | 276 kts | 74° |
| 2026-04-30 14:46 | -20.38848 | 57.38145 | 4952 ft | 277 kts | 76° |
| 2026-04-30 14:46 | -20.38268 | 57.40079 | 4615 ft | 277 kts | 74° |
| 2026-04-30 14:46 | -20.37874 | 57.41384 | 4549 ft | 270 kts | 74° |
| 2026-04-30 14:46 | -20.37317 | 57.43219 | 4445 ft | 261 kts | 73° |
| 2026-04-30 14:47 | -20.37191 | 57.43639 | 4385 ft | 261 kts | 74° |
| 2026-04-30 14:51 | -20.36430 | 57.46359 | 3929 ft | 257 kts | 76° |
| 2026-04-30 14:52 | -20.35903 | 57.48124 | 3906 ft | 242 kts | 75° |
| 2026-04-30 14:52 | -20.35207 | 57.51288 | 3893 ft | 212 kts | 95° |
| 2026-04-30 14:52 | -20.35515 | 57.52775 | 3821 ft | 201 kts | 116° |
| 2026-04-30 14:53 | -20.36790 | 57.55435 | 3020 ft | 206 kts | 118° |
| 2026-04-30 14:53 | -20.37433 | 57.56764 | 2659 ft | 197 kts | 120° |
| 2026-04-30 14:54 | -20.38604 | 57.59191 | 2075 ft | 171 kts | 119° |
| 2026-04-30 14:54 | -20.39594 | 57.61246 | 1585 ft | 144 kts | 118° |
| 2026-04-30 14:55 | -20.40505 | 57.63133 | 1164 ft | 144 kts | 119° |
| 2026-04-30 14:55 | -20.40957 | 57.64071 | 962 ft | 139 kts | 120° |
| 2026-04-30 14:55 | -20.41859 | 57.65918 | 511 ft | 141 kts | 118° |
| 2026-04-30 14:56 | -20.42743 | 57.67773 | 208 ft | 134 kts | 120° |
| 2026-04-30 14:56 | -20.43355 | 57.69041 | 154 ft | 54 kts | 117° |
| 2026-04-30 14:57 | -20.43497 | 57.69337 | 136 ft | 23 kts | 116° |
| 2026-04-30 14:57 | -20.43600 | 57.69346 | 138 ft | 1 kts | 200° |
| 2026-04-30 14:58 | -20.43641 | 57.69325 | 144 ft | 2 kts | 214° |
| 2026-04-30 14:58 | -20.43658 | 57.69282 | 150 ft | 8 kts | 273° |
| 2026-04-30 14:58 | -20.43586 | 57.69114 | 163 ft | 12 kts | 297° |
| 2026-04-30 14:59 | -20.43519 | 57.68980 | 171 ft | 10 kts | 298° |
| 2026-04-30 15:00 | -20.43393 | 57.68717 | 175 ft | 16 kts | 296° |
| 2026-04-30 15:00 | -20.43274 | 57.68472 | 179 ft | 21 kts | 297° |
| 2026-04-30 15:01 | -20.43135 | 57.68184 | 194 ft | 23 kts | 296° |
| 2026-04-30 15:01 | -20.43163 | 57.68073 | 189 ft | 13 kts | 272° |
| 2026-04-30 15:01 | -20.43068 | 57.67865 | 192 ft | 18 kts | 297° |
| 2026-04-30 15:02 | -20.43023 | 57.67773 | 195 ft | 8 kts | 298° |
| 2026-04-30 15:02 | -20.43044 | 57.67732 | 200 ft | 8 kts | 202° |
| 2026-04-30 15:03 | -20.43096 | 57.67706 | 186 ft | 0 kts | 207° |